Hauptseite
METAR-TAF:

METAR-TAF

Flughäfen :

Flugplatz Laval-Entrammes

Laval, Frankreich

Breite: 48-01-56N, Länge: 000-44-34W, Höhe: 101 m

Beobachtung

Neuester Wetterbericht von vor 39 Minuten, um 10:00 UTC
Wind 13 kt aus Süd, variierte zwischen Süd/Südost und Süd/Südwest
Temperatur 13°C
Luftfeuchtigkeit 72%
Luftdruck 1000 hPa
Sichtweite 10 km oder mehr
Aufgelockert bewölkt in der Höhe von 3000 ft
Durchbrochene Bewölkung in der Höhe von 3700 ft
Durchbrochene Bewölkung in der Höhe von 4500 ft

METAR: LFOV 251000Z AUTO 18013KT 150V210 9999 SCT030 BKN037 BKN045 13/08 Q1000

Zeit: 12:39 (10:39 UTC)


TAF: fehlend

Wetterbeobachtungen und Prognosen von mehr als 4000 Flughäfen (METAR und TAF Bericht).

Die verfügbaren Stationen werden durch gelbe und rote Markierungen auf der Karte dargestellt.

Führen Sie die Maus auf sie, um den Namen der Station zu sehen.

Darauf klicken, um die Beobachtung von Wetterbeobachtungen und Prognosen zu sehen.

Um die Karte zu ändern : klicken Sie auf den grünen Tasten mit einem schwarzen Kreuz Zum Vergrößern, auf den grünen Button mit einem Gedankenstrich zu verkleinern, oder auf die grünen Pfeile für benachbarte Karten.


METAR-TAF: